Vandenberg Air Force Base
KVBG : now visible

Airfield :











YOU CAN JOIN US ON...

 
LOGIN :

Register | Disclaimer

   EN    FR    IT 

 









Legend :    VFR   Marginal VFR   IFR   Intensive IFR   Very Intensive IFR
Visi :
Ceiling :
>= 8 km
>= 3000ft
5 to 8 km
1000 to 3000 ft
1500m to 5 km
500 to 1000 ft
800 to 1500m
200 to 500 ft
< 800m
< 200 ft
Symbols :   Thunderstorms  Fog  Heavy snow  Heavy precipitations  Wind > 20 kt






- Airport Elevation : 369 ft


KVBG - Vandenberg Air Force Base

CURRENT METAR :
  • 200843Z AUTO 06006KT 5/8SM R30/4000FT BR VV001 13/12 A2994 RMK AO2 SLP141

EXPIRED METARs :
  • 200838Z AUTO 06005KT 1/2SM R30/3500FT FG VV001 13/12 A2994 RMK AO2 SLP141
  • 200828Z AUTO 02006KT 3/4SM R30/5000FT BR VV001 13/12 A2994 RMK AO2 SLP141 $
  • 200808Z AUTO 01008KT 1/2SM R30/4000FT FG VV001 13/12 A2994 RMK AO2 VIS 1 3/4 RWY12 SLP141 $
  • 200758Z AUTO 36008KT 1/4SM R30/2400FT FG VV001 13/13 A2994 RMK AO2 VIS 2 RWY12 SLP141 P0001 T01290125 401830066 $
  • 200743Z AUTO 36007KT 1/4SM R30/1800FT FG VV001 13/13 A2994 RMK AO2 SLP141
  • 200728Z AUTO 01006KT 1/4SM R30/2000FT FG VV001 13/13 A2995 RMK AO2 SLP145
  • 200658Z AUTO 01008KT 3/8SM R30/2800FT FG VV001 13/13 A2995 RMK AO2 SLP145 $
  • 200648Z AUTO 36007KT 1/2SM R30/4000FT FG VV001 13/13 A2995 RMK AO2 SLP145
  • 200628Z AUTO 01007KT 1/2SM R30/3000FT FG VV001 13/13 A2995 RMK AO2 SLP145
  • 200558Z AUTO 36006KT 3/8SM R30/2800FT FG VV001 13/13 A2995 RMK AO2 SLP145 T01330130 10148 20131 53004 $

TAF COR TAF KVBG
Valid from the 19 at 22:00 until the 21 at 04:00 UTC


192202Z 1922/2104 33009KT 9999 BKN010 QNH2996INS
BECMG 1922/1923 33009KT 9999 BKN008 QNH2996INS
BECMG 1923/1924 33009KT 8000 BR OVC006 QNH2995INS
BECMG 2001/2002 VRB06KT 4800 BR OVC004 QNH2994INS
BECMG 2003/2004 VRB06KT 0800 FG VV002 QNH2993INS
BECMG 2005/2006 VRB06KT 0400 FG VV001 QNH2992INS
BECMG 2015/2016 35006KT 3200 BR OVC003 QNH2995INS
BECMG 2017/2018 32009KT 9999 NSW BKN005 QNH2998INS
BECMG 2019/2020 32009KT 9999 BKN007 QNH2996INS
BECMG 2021/2022 31009KT 9999 SCT010 QNH2994INS
BECMG 2023/2024 31009KT 9999 BKN006 QNH2993INS
BECMG 2100/2101 VRB09KT 6000 BR OVC004 QNH2991INS
BECMG 2102/2103 VRB09KT 1600 BR OVC003 QNH2990INS TX18/2020Z TN12/2014Z LAST NO AMDS AFT 2000 NEXT 2014
KZLA FIR / North America



MET'MAP, your aeronautical weather chart ! - Copyright ORBIFLY December 2007 - Disclaimer

ORBIFLY MET'MAP TEAM :

Programming & Development : Alexandra Zaïnal
Concept & original design : Baudouin d'Aumeries
Assistance for programming : Marc-Olivier Méhu
Technical & hardware support : Manuel Goepfert

Contact : metmap@orbifly.com




SOURCES & CREDITS :

   NOAA       Earth
Advisory